sensor_id;sensor_type;location;lat;lon;timestamp;pressure;altitude;pressure_sealevel;temperature;humidity
3960;BME280;1994;48.640;8.894;2023-04-03T00:00:43;96799.19;;;5.07;80.73
3960;BME280;1994;48.640;8.894;2023-04-03T00:03:09;96792.09;;;5.09;80.28
3960;BME280;1994;48.640;8.894;2023-04-03T00:05:34;96796.50;;;5.15;80.64
3960;BME280;1994;48.640;8.894;2023-04-03T00:08:01;96794.75;;;5.01;80.08
3960;BME280;1994;48.640;8.894;2023-04-03T00:10:28;96783.41;;;5.10;80.11
3960;BME280;1994;48.640;8.894;2023-04-03T00:12:54;96786.44;;;4.99;79.78
3960;BME280;1994;48.640;8.894;2023-04-03T00:15:20;96789.16;;;4.91;79.81
3960;BME280;1994;48.640;8.894;2023-04-03T00:17:46;96793.56;;;4.97;80.45
3960;BME280;1994;48.640;8.894;2023-04-03T00:20:11;96795.50;;;4.95;80.41
3960;BME280;1994;48.640;8.894;2023-04-03T00:22:37;96789.63;;;5.01;79.65
3960;BME280;1994;48.640;8.894;2023-04-03T00:25:04;96790.25;;;5.03;80.24
3960;BME280;1994;48.640;8.894;2023-04-03T00:27:30;96795.50;;;4.95;79.72
3960;BME280;1994;48.640;8.894;2023-04-03T00:29:56;96783.53;;;5.02;79.82
3960;BME280;1994;48.640;8.894;2023-04-03T00:32:21;96792.25;;;5.07;80.07
3960;BME280;1994;48.640;8.894;2023-04-03T00:34:48;96793.97;;;5.00;80.18
3960;BME280;1994;48.640;8.894;2023-04-03T00:37:14;96783.81;;;4.92;79.82
3960;BME280;1994;48.640;8.894;2023-04-03T00:39:39;96785.59;;;4.92;79.77
3960;BME280;1994;48.640;8.894;2023-04-03T00:42:06;96793.56;;;4.97;80.15
3960;BME280;1994;48.640;8.894;2023-04-03T00:47:02;96788.03;;;5.00;80.18
3960;BME280;1994;48.640;8.894;2023-04-03T00:49:29;96791.81;;;4.83;80.45
3960;BME280;1994;48.640;8.894;2023-04-03T00:51:56;96788.16;;;4.92;80.16
3960;BME280;1994;48.640;8.894;2023-04-03T00:54:23;96779.66;;;4.91;80.44
3960;BME280;1994;48.640;8.894;2023-04-03T00:56:51;96788.63;;;4.81;80.42
3960;BME280;1994;48.640;8.894;2023-04-03T00:59:23;96788.25;;;4.84;80.44
3960;BME280;1994;48.640;8.894;2023-04-03T01:01:54;96776.50;;;4.89;80.24
3960;BME280;1994;48.640;8.894;2023-04-03T01:04:38;96780.19;;;4.66;80.40
3960;BME280;1994;48.640;8.894;2023-04-03T01:07:16;96783.00;;;4.71;79.95
3960;BME280;1994;48.640;8.894;2023-04-03T01:09:44;96789.38;;;4.75;79.86
3960;BME280;1994;48.640;8.894;2023-04-03T01:14:45;96784.75;;;4.85;80.02
3960;BME280;1994;48.640;8.894;2023-04-03T01:20:23;96784.00;;;4.91;80.31
3960;BME280;1994;48.640;8.894;2023-04-03T01:25:32;96804.25;;;4.65;79.20
3960;BME280;1994;48.640;8.894;2023-04-03T01:27:59;96795.31;;;4.61;79.46
3960;BME280;1994;48.640;8.894;2023-04-03T01:30:32;96792.91;;;4.74;79.74
3960;BME280;1994;48.640;8.894;2023-04-03T01:33:00;96789.38;;;4.75;80.00
3960;BME280;1994;48.640;8.894;2023-04-03T01:35:25;96794.13;;;4.78;80.03
3960;BME280;1994;48.640;8.894;2023-04-03T01:37:54;96788.38;;;4.76;79.60
3960;BME280;1994;48.640;8.894;2023-04-03T01:40:20;96790.16;;;4.75;79.31
3960;BME280;1994;48.640;8.894;2023-04-03T01:42:46;96791.31;;;4.73;79.22
3960;BME280;1994;48.640;8.894;2023-04-03T01:45:11;96792.03;;;4.67;79.24
3960;BME280;1994;48.640;8.894;2023-04-03T01:47:38;96793.25;;;4.71;79.30
3960;BME280;1994;48.640;8.894;2023-04-03T01:50:04;96794.25;;;4.70;78.82
3960;BME280;1994;48.640;8.894;2023-04-03T01:52:29;96792.47;;;4.70;78.78
3960;BME280;1994;48.640;8.894;2023-04-03T01:54:55;96793.25;;;4.71;79.13
3960;BME280;1994;48.640;8.894;2023-04-03T01:57:21;96790.09;;;4.69;78.72
3960;BME280;1994;48.640;8.894;2023-04-03T01:59:47;96790.81;;;4.63;79.00
3960;BME280;1994;48.640;8.894;2023-04-03T02:02:12;96784.00;;;4.55;78.92
3960;BME280;1994;48.640;8.894;2023-04-03T02:04:40;96788.44;;;4.61;78.77
3960;BME280;1994;48.640;8.894;2023-04-03T02:07:06;96787.72;;;4.53;79.29
3960;BME280;1994;48.640;8.894;2023-04-03T02:09:32;96789.41;;;4.46;79.82
3960;BME280;1994;48.640;8.894;2023-04-03T02:11:58;96781.97;;;4.51;79.40
3960;BME280;1994;48.640;8.894;2023-04-03T02:14:24;96793.56;;;4.61;79.43
3960;BME280;1994;48.640;8.894;2023-04-03T02:16:50;96794.72;;;4.59;79.90
3960;BME280;1994;48.640;8.894;2023-04-03T02:19:18;96793.13;;;4.58;79.60
3960;BME280;1994;48.640;8.894;2023-04-03T02:21:44;96790.72;;;4.56;79.90
3960;BME280;1994;48.640;8.894;2023-04-03T02:24:10;96803.13;;;4.53;80.02
3960;BME280;1994;48.640;8.894;2023-04-03T02:26:36;96798.59;;;4.55;79.99
3960;BME280;1994;48.640;8.894;2023-04-03T02:29:02;96791.88;;;4.54;80.12
3960;BME280;1994;48.640;8.894;2023-04-03T02:31:28;96800.56;;;4.53;80.07
3960;BME280;1994;48.640;8.894;2023-04-03T02:33:53;96803.13;;;4.53;80.34
3960;BME280;1994;48.640;8.894;2023-04-03T02:36:19;96803.38;;;4.58;80.45
3960;BME280;1994;48.640;8.894;2023-04-03T02:38:45;96810.38;;;4.49;80.41
3960;BME280;1994;48.640;8.894;2023-04-03T02:41:12;96808.72;;;4.42;79.48
3960;BME280;1994;48.640;8.894;2023-04-03T02:43:38;96800.03;;;4.43;80.19
3960;BME280;1994;48.640;8.894;2023-04-03T02:46:06;96801.00;;;4.56;79.57
3960;BME280;1994;48.640;8.894;2023-04-03T02:48:33;96801.16;;;4.55;79.20
3960;BME280;1994;48.640;8.894;2023-04-03T02:50:59;96797.00;;;4.54;79.70
3960;BME280;1994;48.640;8.894;2023-04-03T02:53:24;96800.91;;;4.50;80.29
3960;BME280;1994;48.640;8.894;2023-04-03T02:55:50;96798.94;;;4.52;80.04
3960;BME280;1994;48.640;8.894;2023-04-03T02:58:16;96792.94;;;4.45;80.26
3960;BME280;1994;48.640;8.894;2023-04-03T03:00:42;96798.44;;;4.42;79.96
3960;BME280;1994;48.640;8.894;2023-04-03T03:03:08;96793.31;;;4.42;80.17
3960;BME280;1994;48.640;8.894;2023-04-03T03:05:33;96802.88;;;4.48;80.26
3960;BME280;1994;48.640;8.894;2023-04-03T03:07:59;96805.44;;;4.48;79.64
3960;BME280;1994;48.640;8.894;2023-04-03T03:10:25;96798.44;;;4.42;79.69
3960;BME280;1994;48.640;8.894;2023-04-03T03:12:51;96801.50;;;4.52;79.94
3960;BME280;1994;48.640;8.894;2023-04-03T03:15:19;96793.47;;;4.55;80.10
3960;BME280;1994;48.640;8.894;2023-04-03T03:17:45;96795.00;;;4.49;79.74
3960;BME280;1994;48.640;8.894;2023-04-03T03:20:15;96797.00;;;4.54;79.98
3960;BME280;1994;48.640;8.894;2023-04-03T03:22:41;96791.88;;;4.54;79.97
3960;BME280;1994;48.640;8.894;2023-04-03T03:25:07;96790.66;;;4.50;79.47
3960;BME280;1994;48.640;8.894;2023-04-03T03:27:33;96793.94;;;4.44;79.60
3960;BME280;1994;48.640;8.894;2023-04-03T03:29:59;96787.75;;;4.38;79.54
3960;BME280;1994;48.640;8.894;2023-04-03T03:32:24;96788.53;;;4.39;79.44
3960;BME280;1994;48.640;8.894;2023-04-03T03:34:50;96789.50;;;4.38;80.34
3960;BME280;1994;48.640;8.894;2023-04-03T03:37:16;96782.69;;;4.45;80.63
3960;BME280;1994;48.640;8.894;2023-04-03T03:39:42;96780.28;;;4.43;79.94
3960;BME280;1994;48.640;8.894;2023-04-03T03:42:10;96781.28;;;4.42;80.18
3960;BME280;1994;48.640;8.894;2023-04-03T03:44:36;96788.97;;;4.42;79.50
3960;BME280;1994;48.640;8.894;2023-04-03T03:47:02;96783.06;;;4.42;79.61
3960;BME280;1994;48.640;8.894;2023-04-03T03:49:28;96783.41;;;4.39;79.32
3960;BME280;1994;48.640;8.894;2023-04-03T03:51:54;96782.34;;;4.48;78.59
3960;BME280;1994;48.640;8.894;2023-04-03T03:54:20;96787.38;;;4.41;77.70
3960;BME280;1994;48.640;8.894;2023-04-03T03:56:46;96799.50;;;4.33;77.72
3960;BME280;1994;48.640;8.894;2023-04-03T03:59:12;96786.94;;;4.38;77.64
3960;BME280;1994;48.640;8.894;2023-04-03T04:01:38;96795.97;;;4.34;77.30
3960;BME280;1994;48.640;8.894;2023-04-03T04:04:03;96792.09;;;4.38;77.50
3960;BME280;1994;48.640;8.894;2023-04-03T04:06:29;96797.94;;;4.32;76.65
3960;BME280;1994;48.640;8.894;2023-04-03T04:08:55;96789.25;;;4.33;76.31
3960;BME280;1994;48.640;8.894;2023-04-03T04:11:21;96787.81;;;4.45;76.68
3960;BME280;1994;48.640;8.894;2023-04-03T04:13:47;96793.41;;;4.34;75.87
3960;BME280;1994;48.640;8.894;2023-04-03T04:16:13;96799.94;;;4.36;75.90
3960;BME280;1994;48.640;8.894;2023-04-03T04:18:39;96804.63;;;4.33;75.75
3960;BME280;1994;48.640;8.894;2023-04-03T04:21:04;96802.19;;;4.25;75.87
3960;BME280;1994;48.640;8.894;2023-04-03T04:23:30;96800.22;;;4.27;76.19
3960;BME280;1994;48.640;8.894;2023-04-03T04:25:56;96801.47;;;4.31;76.02
3960;BME280;1994;48.640;8.894;2023-04-03T04:28:21;96802.34;;;4.38;76.06
3960;BME280;1994;48.640;8.894;2023-04-03T04:30:47;96803.59;;;4.42;75.90
3960;BME280;1994;48.640;8.894;2023-04-03T04:33:16;96807.09;;;4.41;75.45
3960;BME280;1994;48.640;8.894;2023-04-03T04:35:42;96799.66;;;4.46;75.67
3960;BME280;1994;48.640;8.894;2023-04-03T04:38:08;96801.09;;;4.34;75.57
3960;BME280;1994;48.640;8.894;2023-04-03T04:40:34;96805.06;;;4.36;75.79
3960;BME280;1994;48.640;8.894;2023-04-03T04:43:00;96795.25;;;4.40;75.45
3960;BME280;1994;48.640;8.894;2023-04-03T04:45:26;96791.97;;;4.46;75.78
3960;BME280;1994;48.640;8.894;2023-04-03T04:47:55;96795.44;;;4.24;75.42
3960;BME280;1994;48.640;8.894;2023-04-03T04:50:21;96800.75;;;4.37;76.09
3960;BME280;1994;48.640;8.894;2023-04-03T04:52:47;96799.84;;;4.30;75.33
3960;BME280;1994;48.640;8.894;2023-04-03T04:55:13;96801.47;;;4.31;75.56
3960;BME280;1994;48.640;8.894;2023-04-03T04:57:40;96814.03;;;4.26;75.16
3960;BME280;1994;48.640;8.894;2023-04-03T05:00:06;96808.34;;;4.16;75.36
3960;BME280;1994;48.640;8.894;2023-04-03T05:02:32;96823.91;;;4.29;75.54
3960;BME280;1994;48.640;8.894;2023-04-03T05:04:57;96818.34;;;4.40;75.38
3960;BME280;1994;48.640;8.894;2023-04-03T05:07:24;96813.31;;;4.32;75.53
3960;BME280;1994;48.640;8.894;2023-04-03T05:09:49;96819.75;;;4.28;74.37
3960;BME280;1994;48.640;8.894;2023-04-03T05:12:16;96818.78;;;4.29;73.77
3960;BME280;1994;48.640;8.894;2023-04-03T05:14:42;96821.72;;;4.40;74.28
3960;BME280;1994;48.640;8.894;2023-04-03T05:17:07;96823.91;;;4.43;74.84
3960;BME280;1994;48.640;8.894;2023-04-03T05:19:33;96828.69;;;4.32;75.06
3960;BME280;1994;48.640;8.894;2023-04-03T05:21:59;96826.75;;;4.34;75.13
3960;BME280;1994;48.640;8.894;2023-04-03T05:24:25;96824.81;;;4.36;74.81
3960;BME280;1994;48.640;8.894;2023-04-03T05:26:51;96828.25;;;4.43;74.60
3960;BME280;1994;48.640;8.894;2023-04-03T05:29:17;96830.19;;;4.41;73.82
3960;BME280;1994;48.640;8.894;2023-04-03T05:31:42;96834.84;;;4.52;73.58
3960;BME280;1994;48.640;8.894;2023-04-03T05:34:08;96826.28;;;4.59;73.87
3960;BME280;1994;48.640;8.894;2023-04-03T05:36:34;96830.97;;;4.56;72.88
3960;BME280;1994;48.640;8.894;2023-04-03T05:39:00;96836.47;;;4.53;71.84
3960;BME280;1994;48.640;8.894;2023-04-03T05:41:26;96831.16;;;4.40;70.60
3960;BME280;1994;48.640;8.894;2023-04-03T05:43:52;96828.41;;;4.41;70.41
3960;BME280;1994;48.640;8.894;2023-04-03T05:46:19;96834.16;;;4.29;68.84
3960;BME280;1994;48.640;8.894;2023-04-03T05:48:46;96838.41;;;4.51;70.27
3960;BME280;1994;48.640;8.894;2023-04-03T05:51:19;96827.69;;;4.62;69.28
3960;BME280;1994;48.640;8.894;2023-04-03T05:53:47;96836.28;;;4.54;68.27
3960;BME280;1994;48.640;8.894;2023-04-03T05:56:14;96836.47;;;4.53;68.13
3960;BME280;1994;48.640;8.894;2023-04-03T05:58:40;96840.50;;;4.62;67.97
3960;BME280;1994;48.640;8.894;2023-04-03T06:01:06;96827.59;;;4.70;68.66
3960;BME280;1994;48.640;8.894;2023-04-03T06:03:32;96839.78;;;4.68;66.66
3960;BME280;1994;48.640;8.894;2023-04-03T06:05:58;96845.06;;;4.45;65.13
3960;BME280;1994;48.640;8.894;2023-04-03T06:08:23;96839.66;;;4.55;65.08
3960;BME280;1994;48.640;8.894;2023-04-03T06:10:49;96837.78;;;4.49;64.28
3960;BME280;1994;48.640;8.894;2023-04-03T06:13:16;96840.34;;;4.49;64.27
3960;BME280;1994;48.640;8.894;2023-04-03T06:15:42;96843.34;;;4.67;63.92
3960;BME280;1994;48.640;8.894;2023-04-03T06:18:08;96838.00;;;4.83;64.49
3960;BME280;1994;48.640;8.894;2023-04-03T06:20:34;96841.34;;;4.98;65.75
3960;BME280;1994;48.640;8.894;2023-04-03T06:23:00;96848.56;;;5.09;67.37
3960;BME280;1994;48.640;8.894;2023-04-03T06:25:26;96839.88;;;5.10;66.15
3960;BME280;1994;48.640;8.894;2023-04-03T06:27:52;96837.25;;;5.03;65.94
3960;BME280;1994;48.640;8.894;2023-04-03T06:30:17;96849.13;;;4.90;65.09
3960;BME280;1994;48.640;8.894;2023-04-03T06:32:43;96844.16;;;5.03;65.38
3960;BME280;1994;48.640;8.894;2023-04-03T06:35:09;96851.50;;;5.06;66.39
3960;BME280;1994;48.640;8.894;2023-04-03T06:37:36;96854.06;;;5.06;67.47
3960;BME280;1994;48.640;8.894;2023-04-03T06:40:02;96853.72;;;5.09;67.91
3960;BME280;1994;48.640;8.894;2023-04-03T06:42:28;96856.88;;;5.11;67.79
3960;BME280;1994;48.640;8.894;2023-04-03T06:44:54;96864.72;;;5.03;68.06
3960;BME280;1994;48.640;8.894;2023-04-03T06:47:22;96865.75;;;5.08;68.45
3960;BME280;1994;48.640;8.894;2023-04-03T06:49:48;96866.81;;;5.14;68.36
3960;BME280;1994;48.640;8.894;2023-04-03T06:52:15;96863.47;;;4.99;68.11
3960;BME280;1994;48.640;8.894;2023-04-03T06:54:41;96860.47;;;4.95;68.02
3960;BME280;1994;48.640;8.894;2023-04-03T06:57:07;96863.16;;;4.87;67.47
3960;BME280;1994;48.640;8.894;2023-04-03T06:59:33;96866.03;;;4.99;67.50
3960;BME280;1994;48.640;8.894;2023-04-03T07:01:59;96864.06;;;5.15;67.12
3960;BME280;1994;48.640;8.894;2023-04-03T07:04:25;96864.50;;;5.19;66.96
3960;BME280;1994;48.640;8.894;2023-04-03T07:06:52;96876.13;;;5.36;66.36
3960;BME280;1994;48.640;8.894;2023-04-03T07:09:18;96871.72;;;5.30;66.36
3960;BME280;1994;48.640;8.894;2023-04-03T07:11:44;96870.97;;;5.36;66.06
3960;BME280;1994;48.640;8.894;2023-04-03T07:14:10;96871.09;;;5.49;65.88
3960;BME280;1994;48.640;8.894;2023-04-03T07:16:35;96874.56;;;5.41;64.63
3960;BME280;1994;48.640;8.894;2023-04-03T07:19:02;96879.06;;;5.54;64.69
3960;BME280;1994;48.640;8.894;2023-04-03T07:21:28;96874.59;;;5.62;65.81
3960;BME280;1994;48.640;8.894;2023-04-03T07:23:54;96885.34;;;5.72;65.33
3960;BME280;1994;48.640;8.894;2023-04-03T07:26:21;96878.97;;;5.83;64.30
3960;BME280;1994;48.640;8.894;2023-04-03T07:28:48;96876.06;;;5.71;64.06
3960;BME280;1994;48.640;8.894;2023-04-03T07:31:14;96879.06;;;5.75;64.80
3960;BME280;1994;48.640;8.894;2023-04-03T07:33:42;96883.72;;;5.86;64.40
3960;BME280;1994;48.640;8.894;2023-04-03T07:36:09;96879.78;;;5.69;64.68
3960;BME280;1994;48.640;8.894;2023-04-03T07:38:36;96885.31;;;5.87;64.54
3960;BME280;1994;48.640;8.894;2023-04-03T07:41:03;96884.06;;;6.04;64.67
3960;BME280;1994;48.640;8.894;2023-04-03T07:43:31;96894.09;;;5.99;64.83
3960;BME280;1994;48.640;8.894;2023-04-03T07:45:56;96887.91;;;6.14;64.56
3960;BME280;1994;48.640;8.894;2023-04-03T07:48:24;96891.22;;;6.36;63.54
3960;BME280;1994;48.640;8.894;2023-04-03T07:50:51;96887.81;;;6.56;63.33
3960;BME280;1994;48.640;8.894;2023-04-03T07:53:17;96886.81;;;6.64;63.68
3960;BME280;1994;48.640;8.894;2023-04-03T07:55:46;96896.44;;;6.83;63.69
3960;BME280;1994;48.640;8.894;2023-04-03T07:58:17;96891.84;;;6.72;62.35
3960;BME280;1994;48.640;8.894;2023-04-03T08:00:44;96895.00;;;6.74;63.25
3960;BME280;1994;48.640;8.894;2023-04-03T08:03:11;96892.19;;;6.69;63.01
3960;BME280;1994;48.640;8.894;2023-04-03T08:05:39;96895.81;;;6.74;63.28
3960;BME280;1994;48.640;8.894;2023-04-03T08:08:05;96893.47;;;6.86;63.36
3960;BME280;1994;48.640;8.894;2023-04-03T08:10:32;96896.00;;;6.73;63.25
3960;BME280;1994;48.640;8.894;2023-04-03T08:13:00;96888.75;;;6.96;62.51
3960;BME280;1994;48.640;8.894;2023-04-03T08:15:26;96900.31;;;7.13;62.07
3960;BME280;1994;48.640;8.894;2023-04-03T08:17:52;96891.00;;;7.05;62.21
3960;BME280;1994;48.640;8.894;2023-04-03T08:20:18;96899.50;;;7.06;61.11
3960;BME280;1994;48.640;8.894;2023-04-03T08:22:44;96899.50;;;7.06;61.25
3960;BME280;1994;48.640;8.894;2023-04-03T08:25:10;96902.25;;;6.98;61.51
3960;BME280;1994;48.640;8.894;2023-04-03T08:27:36;96898.34;;;7.08;61.80
3960;BME280;1994;48.640;8.894;2023-04-03T08:30:03;96905.81;;;6.97;62.52
3960;BME280;1994;48.640;8.894;2023-04-03T08:32:29;96911.97;;;7.02;62.09
3960;BME280;1994;48.640;8.894;2023-04-03T08:34:55;96906.63;;;6.97;62.59
3960;BME280;1994;48.640;8.894;2023-04-03T08:37:21;96906.03;;;7.02;61.52
3960;BME280;1994;48.640;8.894;2023-04-03T08:39:47;96909.91;;;6.85;62.20
3960;BME280;1994;48.640;8.894;2023-04-03T08:42:49;96907.59;;;6.96;63.50
3960;BME280;1994;48.640;8.894;2023-04-03T08:45:26;96911.81;;;7.04;63.67
3960;BME280;1994;48.640;8.894;2023-04-03T08:50:36;96905.63;;;7.52;61.38
3960;BME280;1994;48.640;8.894;2023-04-03T08:53:04;96913.91;;;7.41;61.46
3960;BME280;1994;48.640;8.894;2023-04-03T08:55:43;96916.41;;;7.15;61.93
3960;BME280;1994;48.640;8.894;2023-04-03T08:58:25;96913.38;;;7.05;62.41
3960;BME280;1994;48.640;8.894;2023-04-03T09:03:23;96915.41;;;7.16;60.09
3960;BME280;1994;48.640;8.894;2023-04-03T09:06:04;96917.44;;;7.27;61.63
3960;BME280;1994;48.640;8.894;2023-04-03T09:08:51;96918.97;;;7.15;61.15
3960;BME280;1994;48.640;8.894;2023-04-03T09:17:03;96917.94;;;6.69;62.26
3960;BME280;1994;48.640;8.894;2023-04-03T09:22:24;96919.34;;;6.37;63.23
3960;BME280;1994;48.640;8.894;2023-04-03T09:25:02;96922.28;;;6.62;63.50
3960;BME280;1994;48.640;8.894;2023-04-03T09:27:33;96919.75;;;6.41;63.02
3960;BME280;1994;48.640;8.894;2023-04-03T09:29:59;96924.16;;;6.47;63.93
3960;BME280;1994;48.640;8.894;2023-04-03T09:32:34;96921.50;;;6.68;63.80
3960;BME280;1994;48.640;8.894;2023-04-03T09:37:41;96917.69;;;6.91;62.82
3960;BME280;1994;48.640;8.894;2023-04-03T09:40:38;96927.78;;;6.93;61.67
3960;BME280;1994;48.640;8.894;2023-04-03T09:43:32;96923.59;;;6.85;62.00
3960;BME280;1994;48.640;8.894;2023-04-03T09:46:36;96915.91;;;6.58;61.85
3960;BME280;1994;48.640;8.894;2023-04-03T09:49:05;96924.72;;;6.70;62.65
3960;BME280;1994;48.640;8.894;2023-04-03T09:51:32;96923.00;;;6.90;62.20
3960;BME280;1994;48.640;8.894;2023-04-03T09:53:58;96920.13;;;7.06;61.34
3960;BME280;1994;48.640;8.894;2023-04-03T09:56:29;96920.66;;;6.95;61.75
3960;BME280;1994;48.640;8.894;2023-04-03T10:01:38;96920.78;;;6.80;61.49
3960;BME280;1994;48.640;8.894;2023-04-03T10:04:19;96927.53;;;6.81;61.37
3960;BME280;1994;48.640;8.894;2023-04-03T10:10:20;96908.47;;;6.69;60.83
3960;BME280;1994;48.640;8.894;2023-04-03T10:13:09;96912.88;;;6.48;61.33
3960;BME280;1994;48.640;8.894;2023-04-03T10:15:44;96920.63;;;6.54;62.33
3960;BME280;1994;48.640;8.894;2023-04-03T10:19:03;96917.47;;;6.59;62.04
3960;BME280;1994;48.640;8.894;2023-04-03T10:21:57;96912.78;;;6.62;61.06
3960;BME280;1994;48.640;8.894;2023-04-03T10:25:01;96911.22;;;6.68;60.56
3960;BME280;1994;48.640;8.894;2023-04-03T10:30:31;96902.44;;;6.56;58.60
3960;BME280;1994;48.640;8.894;2023-04-03T10:33:20;96913.44;;;6.43;58.79
3960;BME280;1994;48.640;8.894;2023-04-03T10:36:21;96909.47;;;6.41;58.41
3960;BME280;1994;48.640;8.894;2023-04-03T10:39:14;96901.84;;;6.54;57.07
3960;BME280;1994;48.640;8.894;2023-04-03T10:42:02;96903.63;;;6.94;58.64
3960;BME280;1994;48.640;8.894;2023-04-03T10:47:49;96897.47;;;6.95;59.56
3960;BME280;1994;48.640;8.894;2023-04-03T10:50:30;96902.63;;;6.95;59.96
3960;BME280;1994;48.640;8.894;2023-04-03T10:55:55;96902.75;;;7.21;59.77
3960;BME280;1994;48.640;8.894;2023-04-03T10:58:36;96898.47;;;7.41;60.28
3960;BME280;1994;48.640;8.894;2023-04-03T11:01:15;96897.19;;;7.24;59.98
3960;BME280;1994;48.640;8.894;2023-04-03T11:03:54;96906.91;;;7.22;59.91
3960;BME280;1994;48.640;8.894;2023-04-03T11:06:36;96903.97;;;7.25;59.67
3960;BME280;1994;48.640;8.894;2023-04-03T11:09:26;96897.19;;;7.17;58.81
3960;BME280;1994;48.640;8.894;2023-04-03T11:12:44;96904.38;;;7.28;58.74
3960;BME280;1994;48.640;8.894;2023-04-03T11:15:17;96901.28;;;6.99;58.27
3960;BME280;1994;48.640;8.894;2023-04-03T11:17:54;96897.59;;;7.21;58.71
3960;BME280;1994;48.640;8.894;2023-04-03T11:20:29;96900.84;;;7.49;59.28
3960;BME280;1994;48.640;8.894;2023-04-03T11:25:55;96897.13;;;7.84;57.77
3960;BME280;1994;48.640;8.894;2023-04-03T11:28:25;96895.34;;;8.10;56.75
3960;BME280;1994;48.640;8.894;2023-04-03T11:34:39;96897.22;;;8.93;53.80
3960;BME280;1994;48.640;8.894;2023-04-03T11:37:33;96898.47;;;8.71;53.88
3960;BME280;1994;48.640;8.894;2023-04-03T11:40:28;96895.34;;;8.43;53.26
3960;BME280;1994;48.640;8.894;2023-04-03T11:47:58;96900.09;;;7.94;54.86
3960;BME280;1994;48.640;8.894;2023-04-03T11:56:01;96892.78;;;7.91;55.22
3960;BME280;1994;48.640;8.894;2023-04-03T12:04:14;96886.59;;;7.66;56.11
3960;BME280;1994;48.640;8.894;2023-04-03T12:09:34;96878.66;;;7.61;56.78
3960;BME280;1994;48.640;8.894;2023-04-03T12:12:31;96876.03;;;7.41;56.77
3960;BME280;1994;48.640;8.894;2023-04-03T12:18:41;96872.25;;;7.31;57.09
3960;BME280;1994;48.640;8.894;2023-04-03T12:21:12;96876.00;;;7.28;57.31
3960;BME280;1994;48.640;8.894;2023-04-03T12:27:23;96868.25;;;7.22;56.31
3960;BME280;1994;48.640;8.894;2023-04-03T12:30:14;96876.41;;;7.32;55.64
3960;BME280;1994;48.640;8.894;2023-04-03T12:33:12;96871.06;;;7.40;54.81
3960;BME280;1994;48.640;8.894;2023-04-03T12:36:09;96859.22;;;7.58;54.50
3960;BME280;1994;48.640;8.894;2023-04-03T12:41:53;96866.56;;;7.94;53.65
3960;BME280;1994;48.640;8.894;2023-04-03T12:47:35;96860.41;;;7.95;52.52
3960;BME280;1994;48.640;8.894;2023-04-03T12:50:16;96862.00;;;8.09;54.51
3960;BME280;1994;48.640;8.894;2023-04-03T12:52:50;96863.41;;;7.79;55.10
3960;BME280;1994;48.640;8.894;2023-04-03T12:55:19;96866.34;;;7.50;54.49
3960;BME280;1994;48.640;8.894;2023-04-03T12:57:46;96856.63;;;7.45;54.57
3960;BME280;1994;48.640;8.894;2023-04-03T13:00:32;96855.22;;;7.43;55.32
3960;BME280;1994;48.640;8.894;2023-04-03T13:03:01;96861.97;;;7.44;55.40
3960;BME280;1994;48.640;8.894;2023-04-03T13:05:29;96854.00;;;7.26;54.83
3960;BME280;1994;48.640;8.894;2023-04-03T13:08:09;96854.00;;;7.26;54.79
3960;BME280;1994;48.640;8.894;2023-04-03T13:10:58;96854.81;;;7.33;53.94
3960;BME280;1994;48.640;8.894;2023-04-03T13:13:25;96850.41;;;7.20;53.20
3960;BME280;1994;48.640;8.894;2023-04-03T13:15:52;96855.56;;;7.20;53.61
3960;BME280;1994;48.640;8.894;2023-04-03T13:18:28;96859.59;;;7.49;54.70
3960;BME280;1994;48.640;8.894;2023-04-03T13:21:10;96856.44;;;7.60;53.73
3960;BME280;1994;48.640;8.894;2023-04-03T13:23:42;96851.28;;;7.60;53.60
3960;BME280;1994;48.640;8.894;2023-04-03T13:26:09;96851.13;;;7.87;52.71
3960;BME280;1994;48.640;8.894;2023-04-03T13:28:36;96852.06;;;8.06;52.85
3960;BME280;1994;48.640;8.894;2023-04-03T13:31:08;96845.75;;;8.28;52.51
3960;BME280;1994;48.640;8.894;2023-04-03T13:34:02;96839.75;;;8.47;50.93
3960;BME280;1994;48.640;8.894;2023-04-03T13:36:35;96849.69;;;8.37;50.72
3960;BME280;1994;48.640;8.894;2023-04-03T13:41:39;96847.34;;;8.03;51.03
3960;BME280;1994;48.640;8.894;2023-04-03T13:44:36;96839.78;;;7.95;52.51
3960;BME280;1994;48.640;8.894;2023-04-03T13:47:20;96848.72;;;7.79;52.86
3960;BME280;1994;48.640;8.894;2023-04-03T13:52:32;96844.53;;;7.59;52.31
3960;BME280;1994;48.640;8.894;2023-04-03T13:57:58;96844.56;;;7.98;52.00
3960;BME280;1994;48.640;8.894;2023-04-03T14:00:49;96846.91;;;8.06;51.32
3960;BME280;1994;48.640;8.894;2023-04-03T14:03:39;96837.41;;;7.87;50.13
3960;BME280;1994;48.640;8.894;2023-04-03T14:06:06;96834.22;;;7.98;50.93
3960;BME280;1994;48.640;8.894;2023-04-03T14:08:32;96840.97;;;8.05;49.24
3960;BME280;1994;48.640;8.894;2023-04-03T14:10:58;96837.41;;;8.00;49.10
3960;BME280;1994;48.640;8.894;2023-04-03T14:13:24;96842.34;;;7.95;49.47
3960;BME280;1994;48.640;8.894;2023-04-03T14:15:50;96835.06;;;7.79;48.88
3960;BME280;1994;48.640;8.894;2023-04-03T14:18:19;96826.72;;;7.64;49.18
3960;BME280;1994;48.640;8.894;2023-04-03T14:20:46;96830.69;;;7.66;49.82
3960;BME280;1994;48.640;8.894;2023-04-03T14:23:13;96832.25;;;7.61;50.50
3960;BME280;1994;48.640;8.894;2023-04-03T14:25:40;96831.03;;;7.57;50.08
3960;BME280;1994;48.640;8.894;2023-04-03T14:28:32;96828.09;;;7.66;50.00
3960;BME280;1994;48.640;8.894;2023-04-03T14:30:58;96829.47;;;7.43;50.80
3960;BME280;1994;48.640;8.894;2023-04-03T14:33:24;96827.47;;;7.45;51.16
3960;BME280;1994;48.640;8.894;2023-04-03T14:35:51;96828.25;;;7.39;51.61
3960;BME280;1994;48.640;8.894;2023-04-03T14:38:28;96824.47;;;7.35;50.50
3960;BME280;1994;48.640;8.894;2023-04-03T14:40:55;96820.16;;;7.42;50.97
3960;BME280;1994;48.640;8.894;2023-04-03T14:43:21;96823.13;;;7.52;51.01
3960;BME280;1994;48.640;8.894;2023-04-03T14:45:48;96818.56;;;7.67;51.46
3960;BME280;1994;48.640;8.894;2023-04-03T14:48:24;96818.38;;;7.75;50.04
3960;BME280;1994;48.640;8.894;2023-04-03T14:50:52;96817.59;;;7.81;50.71
3960;BME280;1994;48.640;8.894;2023-04-03T14:53:19;96810.44;;;7.83;50.25
3960;BME280;1994;48.640;8.894;2023-04-03T14:55:49;96806.06;;;7.57;49.37
3960;BME280;1994;48.640;8.894;2023-04-03T14:58:18;96821.13;;;7.54;49.52
3960;BME280;1994;48.640;8.894;2023-04-03T15:00:44;96814.41;;;7.53;49.60
3960;BME280;1994;48.640;8.894;2023-04-03T15:03:20;96816.00;;;7.73;50.11
3960;BME280;1994;48.640;8.894;2023-04-03T15:05:48;96814.00;;;7.56;49.48
3960;BME280;1994;48.640;8.894;2023-04-03T15:08:21;96810.84;;;7.54;49.92
3960;BME280;1994;48.640;8.894;2023-04-03T15:10:49;96813.41;;;7.54;50.49
3960;BME280;1994;48.640;8.894;2023-04-03T15:13:15;96817.16;;;7.51;50.92
3960;BME280;1994;48.640;8.894;2023-04-03T15:15:42;96818.19;;;7.70;50.41
3960;BME280;1994;48.640;8.894;2023-04-03T15:18:17;96813.63;;;7.59;50.27